sensor_id;sensor_type;location;lat;lon;timestamp;P1;durP1;ratioP1;P2;durP2;ratioP2
39482;SDS011;25682;48.438;1.482;2023-02-19T00:00:31;3.28;;;1.85;;
39482;SDS011;25682;48.438;1.482;2023-02-19T00:02:57;3.67;;;1.98;;
39482;SDS011;25682;48.438;1.482;2023-02-19T00:05:23;7.75;;;2.20;;
39482;SDS011;25682;48.438;1.482;2023-02-19T00:07:49;2.50;;;1.70;;
39482;SDS011;25682;48.438;1.482;2023-02-19T00:10:15;6.40;;;1.77;;
39482;SDS011;25682;48.438;1.482;2023-02-19T00:12:41;2.42;;;1.50;;
39482;SDS011;25682;48.438;1.482;2023-02-19T00:15:07;3.83;;;1.55;;
39482;SDS011;25682;48.438;1.482;2023-02-19T00:17:33;4.22;;;1.52;;
39482;SDS011;25682;48.438;1.482;2023-02-19T00:19:59;3.80;;;1.80;;
39482;SDS011;25682;48.438;1.482;2023-02-19T00:22:25;2.45;;;1.50;;
39482;SDS011;25682;48.438;1.482;2023-02-19T00:24:51;3.92;;;1.83;;
39482;SDS011;25682;48.438;1.482;2023-02-19T00:27:17;2.33;;;1.58;;
39482;SDS011;25682;48.438;1.482;2023-02-19T00:29:43;5.95;;;2.15;;
39482;SDS011;25682;48.438;1.482;2023-02-19T00:32:09;3.38;;;1.70;;
39482;SDS011;25682;48.438;1.482;2023-02-19T00:34:35;4.22;;;1.83;;
39482;SDS011;25682;48.438;1.482;2023-02-19T00:37:01;10.82;;;1.88;;
39482;SDS011;25682;48.438;1.482;2023-02-19T00:39:27;2.45;;;1.42;;
39482;SDS011;25682;48.438;1.482;2023-02-19T00:41:53;4.40;;;1.42;;
39482;SDS011;25682;48.438;1.482;2023-02-19T00:44:19;6.60;;;1.63;;
39482;SDS011;25682;48.438;1.482;2023-02-19T00:46:46;3.33;;;1.45;;
39482;SDS011;25682;48.438;1.482;2023-02-19T00:49:14;2.85;;;1.55;;
39482;SDS011;25682;48.438;1.482;2023-02-19T00:51:40;3.80;;;1.63;;
39482;SDS011;25682;48.438;1.482;2023-02-19T00:54:06;5.95;;;1.13;;
39482;SDS011;25682;48.438;1.482;2023-02-19T00:56:32;5.43;;;1.58;;
39482;SDS011;25682;48.438;1.482;2023-02-19T00:58:58;2.05;;;1.38;;
39482;SDS011;25682;48.438;1.482;2023-02-19T01:01:24;3.45;;;1.65;;
39482;SDS011;25682;48.438;1.482;2023-02-19T01:03:50;3.63;;;1.40;;
39482;SDS011;25682;48.438;1.482;2023-02-19T01:06:17;2.90;;;1.30;;
39482;SDS011;25682;48.438;1.482;2023-02-19T01:08:43;5.05;;;1.50;;
39482;SDS011;25682;48.438;1.482;2023-02-19T01:11:10;4.50;;;1.38;;
39482;SDS011;25682;48.438;1.482;2023-02-19T01:13:36;3.83;;;1.70;;
39482;SDS011;25682;48.438;1.482;2023-02-19T01:16:06;1.65;;;1.20;;
39482;SDS011;25682;48.438;1.482;2023-02-19T01:18:33;6.32;;;1.85;;
39482;SDS011;25682;48.438;1.482;2023-02-19T01:21:03;3.38;;;1.42;;
39482;SDS011;25682;48.438;1.482;2023-02-19T01:23:29;3.88;;;1.25;;
39482;SDS011;25682;48.438;1.482;2023-02-19T01:25:55;14.13;;;1.58;;
39482;SDS011;25682;48.438;1.482;2023-02-19T01:28:21;3.42;;;1.50;;
39482;SDS011;25682;48.438;1.482;2023-02-19T01:30:47;2.20;;;1.23;;
39482;SDS011;25682;48.438;1.482;2023-02-19T01:33:13;2.05;;;1.30;;
39482;SDS011;25682;48.438;1.482;2023-02-19T01:35:39;3.75;;;1.48;;
39482;SDS011;25682;48.438;1.482;2023-02-19T01:38:05;6.35;;;1.27;;
39482;SDS011;25682;48.438;1.482;2023-02-19T01:40:34;2.58;;;1.00;;
39482;SDS011;25682;48.438;1.482;2023-02-19T01:43:00;2.75;;;1.20;;
39482;SDS011;25682;48.438;1.482;2023-02-19T01:47:58;3.28;;;1.35;;
39482;SDS011;25682;48.438;1.482;2023-02-19T01:50:25;2.72;;;1.10;;
39482;SDS011;25682;48.438;1.482;2023-02-19T01:52:52;1.67;;;1.15;;
39482;SDS011;25682;48.438;1.482;2023-02-19T01:55:18;3.58;;;1.40;;
39482;SDS011;25682;48.438;1.482;2023-02-19T01:57:45;2.65;;;1.30;;
39482;SDS011;25682;48.438;1.482;2023-02-19T02:00:13;2.65;;;1.40;;
39482;SDS011;25682;48.438;1.482;2023-02-19T02:02:40;1.98;;;1.23;;
39482;SDS011;25682;48.438;1.482;2023-02-19T02:05:12;6.25;;;1.33;;
39482;SDS011;25682;48.438;1.482;2023-02-19T02:07:41;3.65;;;1.45;;
39482;SDS011;25682;48.438;1.482;2023-02-19T02:10:25;2.03;;;1.17;;
39482;SDS011;25682;48.438;1.482;2023-02-19T02:12:52;3.58;;;1.00;;
39482;SDS011;25682;48.438;1.482;2023-02-19T02:15:20;1.55;;;1.05;;
39482;SDS011;25682;48.438;1.482;2023-02-19T02:17:55;5.65;;;1.42;;
39482;SDS011;25682;48.438;1.482;2023-02-19T02:31:05;1.63;;;1.15;;
39482;SDS011;25682;48.438;1.482;2023-02-19T02:36:20;3.25;;;1.48;;
39482;SDS011;25682;48.438;1.482;2023-02-19T02:38:48;1.20;;;0.90;;
39482;SDS011;25682;48.438;1.482;2023-02-19T02:41:16;2.47;;;1.55;;
39482;SDS011;25682;48.438;1.482;2023-02-19T02:43:43;1.83;;;1.10;;
39482;SDS011;25682;48.438;1.482;2023-02-19T02:46:10;2.42;;;1.20;;
39482;SDS011;25682;48.438;1.482;2023-02-19T02:51:09;2.35;;;1.00;;
39482;SDS011;25682;48.438;1.482;2023-02-19T02:53:53;1.50;;;1.00;;
39482;SDS011;25682;48.438;1.482;2023-02-19T02:56:39;3.40;;;1.20;;
39482;SDS011;25682;48.438;1.482;2023-02-19T02:59:07;1.20;;;0.98;;
39482;SDS011;25682;48.438;1.482;2023-02-19T03:01:35;3.35;;;1.30;;
39482;SDS011;25682;48.438;1.482;2023-02-19T03:04:23;2.78;;;0.90;;
39482;SDS011;25682;48.438;1.482;2023-02-19T03:06:52;1.50;;;0.93;;
39482;SDS011;25682;48.438;1.482;2023-02-19T03:09:24;3.15;;;1.20;;
39482;SDS011;25682;48.438;1.482;2023-02-19T03:11:54;2.38;;;1.00;;
39482;SDS011;25682;48.438;1.482;2023-02-19T03:14:50;1.48;;;0.85;;
39482;SDS011;25682;48.438;1.482;2023-02-19T03:20:22;2.53;;;1.20;;
39482;SDS011;25682;48.438;1.482;2023-02-19T03:22:48;1.90;;;1.00;;
39482;SDS011;25682;48.438;1.482;2023-02-19T03:25:17;2.08;;;1.00;;
39482;SDS011;25682;48.438;1.482;2023-02-19T03:28:19;1.30;;;0.80;;
39482;SDS011;25682;48.438;1.482;2023-02-19T03:31:06;1.85;;;1.20;;
39482;SDS011;25682;48.438;1.482;2023-02-19T03:33:33;1.45;;;0.90;;
39482;SDS011;25682;48.438;1.482;2023-02-19T03:36:00;1.25;;;0.95;;
39482;SDS011;25682;48.438;1.482;2023-02-19T03:40:55;2.25;;;0.98;;
39482;SDS011;25682;48.438;1.482;2023-02-19T03:43:24;1.63;;;0.90;;
39482;SDS011;25682;48.438;1.482;2023-02-19T03:46:52;1.98;;;1.00;;
39482;SDS011;25682;48.438;1.482;2023-02-19T03:48:49;1.67;;;1.17;;
39482;SDS011;25682;48.438;1.482;2023-02-19T03:51:23;2.72;;;1.00;;
39482;SDS011;25682;48.438;1.482;2023-02-19T03:54:01;0.93;;;0.85;;
39482;SDS011;25682;48.438;1.482;2023-02-19T03:56:33;2.10;;;0.88;;
39482;SDS011;25682;48.438;1.482;2023-02-19T03:59:20;2.58;;;0.80;;
39482;SDS011;25682;48.438;1.482;2023-02-19T04:06:40;1.10;;;0.63;;
39482;SDS011;25682;48.438;1.482;2023-02-19T04:09:07;1.02;;;0.80;;
39482;SDS011;25682;48.438;1.482;2023-02-19T04:11:34;1.33;;;0.80;;
39482;SDS011;25682;48.438;1.482;2023-02-19T04:14:06;2.17;;;0.93;;
39482;SDS011;25682;48.438;1.482;2023-02-19T04:16:35;1.00;;;0.75;;
39482;SDS011;25682;48.438;1.482;2023-02-19T04:19:04;1.30;;;0.90;;
39482;SDS011;25682;48.438;1.482;2023-02-19T04:21:31;1.85;;;0.70;;
39482;SDS011;25682;48.438;1.482;2023-02-19T04:23:59;1.77;;;1.00;;
39482;SDS011;25682;48.438;1.482;2023-02-19T04:26:28;1.08;;;0.73;;
39482;SDS011;25682;48.438;1.482;2023-02-19T04:28:55;1.30;;;0.80;;
39482;SDS011;25682;48.438;1.482;2023-02-19T04:31:21;1.67;;;0.93;;
39482;SDS011;25682;48.438;1.482;2023-02-19T04:33:48;3.00;;;0.98;;
39482;SDS011;25682;48.438;1.482;2023-02-19T04:36:14;1.00;;;0.73;;
39482;SDS011;25682;48.438;1.482;2023-02-19T04:38:40;2.00;;;1.33;;
39482;SDS011;25682;48.438;1.482;2023-02-19T04:41:07;3.45;;;1.02;;
39482;SDS011;25682;48.438;1.482;2023-02-19T04:43:33;2.80;;;1.25;;
39482;SDS011;25682;48.438;1.482;2023-02-19T04:45:59;1.55;;;0.90;;
39482;SDS011;25682;48.438;1.482;2023-02-19T04:48:26;1.88;;;1.00;;
39482;SDS011;25682;48.438;1.482;2023-02-19T04:50:52;1.83;;;1.00;;
39482;SDS011;25682;48.438;1.482;2023-02-19T04:53:18;2.28;;;1.30;;
39482;SDS011;25682;48.438;1.482;2023-02-19T04:55:44;3.05;;;1.20;;
39482;SDS011;25682;48.438;1.482;2023-02-19T04:58:12;2.80;;;1.20;;
39482;SDS011;25682;48.438;1.482;2023-02-19T05:00:37;4.20;;;1.35;;
39482;SDS011;25682;48.438;1.482;2023-02-19T05:03:03;2.70;;;1.60;;
39482;SDS011;25682;48.438;1.482;2023-02-19T05:05:30;2.42;;;1.65;;
39482;SDS011;25682;48.438;1.482;2023-02-19T05:07:56;3.53;;;1.50;;
39482;SDS011;25682;48.438;1.482;2023-02-19T05:10:22;2.78;;;1.80;;
39482;SDS011;25682;48.438;1.482;2023-02-19T05:12:47;2.25;;;1.50;;
39482;SDS011;25682;48.438;1.482;2023-02-19T05:15:13;2.58;;;1.52;;
39482;SDS011;25682;48.438;1.482;2023-02-19T05:17:39;3.70;;;1.77;;
39482;SDS011;25682;48.438;1.482;2023-02-19T05:20:06;3.25;;;1.50;;
39482;SDS011;25682;48.438;1.482;2023-02-19T05:22:32;3.17;;;1.77;;
39482;SDS011;25682;48.438;1.482;2023-02-19T05:24:58;3.75;;;1.50;;
39482;SDS011;25682;48.438;1.482;2023-02-19T05:27:24;1.63;;;1.30;;
39482;SDS011;25682;48.438;1.482;2023-02-19T05:29:50;2.00;;;1.38;;
39482;SDS011;25682;48.438;1.482;2023-02-19T05:32:16;1.98;;;1.15;;
39482;SDS011;25682;48.438;1.482;2023-02-19T05:34:42;2.25;;;1.20;;
39482;SDS011;25682;48.438;1.482;2023-02-19T05:37:08;1.10;;;0.88;;
39482;SDS011;25682;48.438;1.482;2023-02-19T05:39:34;1.33;;;0.95;;
39482;SDS011;25682;48.438;1.482;2023-02-19T05:42:00;1.40;;;1.10;;
39482;SDS011;25682;48.438;1.482;2023-02-19T05:44:26;1.10;;;1.00;;
39482;SDS011;25682;48.438;1.482;2023-02-19T05:46:52;1.80;;;1.05;;
39482;SDS011;25682;48.438;1.482;2023-02-19T05:49:18;2.25;;;1.52;;
39482;SDS011;25682;48.438;1.482;2023-02-19T05:51:44;1.90;;;1.20;;
39482;SDS011;25682;48.438;1.482;2023-02-19T05:54:09;1.50;;;0.90;;
39482;SDS011;25682;48.438;1.482;2023-02-19T05:56:36;2.33;;;1.17;;
39482;SDS011;25682;48.438;1.482;2023-02-19T05:59:14;4.85;;;1.10;;
39482;SDS011;25682;48.438;1.482;2023-02-19T06:01:41;1.80;;;1.10;;
39482;SDS011;25682;48.438;1.482;2023-02-19T06:04:07;1.90;;;1.00;;
39482;SDS011;25682;48.438;1.482;2023-02-19T06:06:33;2.63;;;1.10;;
39482;SDS011;25682;48.438;1.482;2023-02-19T06:09:01;3.50;;;1.38;;
39482;SDS011;25682;48.438;1.482;2023-02-19T06:11:27;2.33;;;1.45;;
39482;SDS011;25682;48.438;1.482;2023-02-19T06:13:53;1.60;;;1.20;;
39482;SDS011;25682;48.438;1.482;2023-02-19T06:16:19;2.03;;;1.17;;
39482;SDS011;25682;48.438;1.482;2023-02-19T06:18:45;1.05;;;0.88;;
39482;SDS011;25682;48.438;1.482;2023-02-19T06:21:12;2.67;;;1.00;;
39482;SDS011;25682;48.438;1.482;2023-02-19T06:23:38;2.78;;;1.17;;
39482;SDS011;25682;48.438;1.482;2023-02-19T06:26:05;2.20;;;1.10;;
39482;SDS011;25682;48.438;1.482;2023-02-19T06:28:32;2.28;;;1.25;;
39482;SDS011;25682;48.438;1.482;2023-02-19T06:30:58;2.03;;;0.95;;
39482;SDS011;25682;48.438;1.482;2023-02-19T06:33:25;1.73;;;0.98;;
39482;SDS011;25682;48.438;1.482;2023-02-19T06:35:51;1.88;;;0.82;;
39482;SDS011;25682;48.438;1.482;2023-02-19T06:38:17;2.08;;;1.10;;
39482;SDS011;25682;48.438;1.482;2023-02-19T06:40:45;4.70;;;1.50;;
39482;SDS011;25682;48.438;1.482;2023-02-19T06:43:11;2.00;;;1.27;;
39482;SDS011;25682;48.438;1.482;2023-02-19T06:45:37;2.20;;;1.00;;
39482;SDS011;25682;48.438;1.482;2023-02-19T06:48:03;2.53;;;1.23;;
39482;SDS011;25682;48.438;1.482;2023-02-19T06:50:29;3.42;;;1.20;;
39482;SDS011;25682;48.438;1.482;2023-02-19T06:52:55;3.60;;;1.55;;
39482;SDS011;25682;48.438;1.482;2023-02-19T06:55:21;4.22;;;1.60;;
39482;SDS011;25682;48.438;1.482;2023-02-19T06:57:47;3.08;;;0.95;;
39482;SDS011;25682;48.438;1.482;2023-02-19T07:00:13;7.68;;;1.90;;
39482;SDS011;25682;48.438;1.482;2023-02-19T07:02:39;5.90;;;1.52;;
39482;SDS011;25682;48.438;1.482;2023-02-19T07:05:05;5.38;;;1.55;;
39482;SDS011;25682;48.438;1.482;2023-02-19T07:07:31;5.40;;;2.08;;
39482;SDS011;25682;48.438;1.482;2023-02-19T07:09:57;5.72;;;1.77;;
39482;SDS011;25682;48.438;1.482;2023-02-19T07:12:23;8.18;;;2.53;;
39482;SDS011;25682;48.438;1.482;2023-02-19T07:14:49;4.22;;;1.58;;
39482;SDS011;25682;48.438;1.482;2023-02-19T07:17:15;6.55;;;1.80;;
39482;SDS011;25682;48.438;1.482;2023-02-19T07:19:41;7.72;;;1.88;;
39482;SDS011;25682;48.438;1.482;2023-02-19T07:22:07;6.93;;;2.45;;
39482;SDS011;25682;48.438;1.482;2023-02-19T07:24:33;6.65;;;1.85;;
39482;SDS011;25682;48.438;1.482;2023-02-19T07:26:59;6.22;;;1.70;;
39482;SDS011;25682;48.438;1.482;2023-02-19T07:29:25;2.95;;;1.25;;
39482;SDS011;25682;48.438;1.482;2023-02-19T07:31:51;7.93;;;1.83;;
39482;SDS011;25682;48.438;1.482;2023-02-19T07:34:17;14.50;;;2.30;;
39482;SDS011;25682;48.438;1.482;2023-02-19T07:36:43;8.40;;;1.95;;
39482;SDS011;25682;48.438;1.482;2023-02-19T07:39:10;12.52;;;2.42;;
39482;SDS011;25682;48.438;1.482;2023-02-19T07:41:38;6.43;;;2.08;;
39482;SDS011;25682;48.438;1.482;2023-02-19T07:44:04;7.53;;;1.98;;
39482;SDS011;25682;48.438;1.482;2023-02-19T07:46:30;6.78;;;1.70;;
39482;SDS011;25682;48.438;1.482;2023-02-19T07:48:56;5.47;;;1.40;;
39482;SDS011;25682;48.438;1.482;2023-02-19T07:51:24;5.50;;;2.13;;
39482;SDS011;25682;48.438;1.482;2023-02-19T07:53:50;6.10;;;1.60;;
39482;SDS011;25682;48.438;1.482;2023-02-19T07:56:16;6.50;;;1.75;;
39482;SDS011;25682;48.438;1.482;2023-02-19T07:58:42;16.60;;;1.77;;
39482;SDS011;25682;48.438;1.482;2023-02-19T08:01:12;5.00;;;1.25;;
39482;SDS011;25682;48.438;1.482;2023-02-19T08:03:39;6.53;;;1.83;;
39482;SDS011;25682;48.438;1.482;2023-02-19T08:06:05;9.63;;;2.08;;
39482;SDS011;25682;48.438;1.482;2023-02-19T08:08:31;8.60;;;1.60;;
39482;SDS011;25682;48.438;1.482;2023-02-19T08:11:00;8.07;;;1.92;;
39482;SDS011;25682;48.438;1.482;2023-02-19T08:13:49;4.70;;;1.60;;
39482;SDS011;25682;48.438;1.482;2023-02-19T08:16:16;8.23;;;2.63;;
39482;SDS011;25682;48.438;1.482;2023-02-19T08:18:44;4.45;;;1.08;;
39482;SDS011;25682;48.438;1.482;2023-02-19T08:21:10;10.38;;;1.92;;
39482;SDS011;25682;48.438;1.482;2023-02-19T08:23:36;5.13;;;1.08;;
39482;SDS011;25682;48.438;1.482;2023-02-19T08:26:03;3.75;;;1.20;;
39482;SDS011;25682;48.438;1.482;2023-02-19T08:28:29;5.78;;;1.33;;
39482;SDS011;25682;48.438;1.482;2023-02-19T08:31:02;4.85;;;1.85;;
39482;SDS011;25682;48.438;1.482;2023-02-19T08:33:28;4.65;;;1.23;;
39482;SDS011;25682;48.438;1.482;2023-02-19T08:35:55;7.25;;;1.35;;
39482;SDS011;25682;48.438;1.482;2023-02-19T08:38:21;3.40;;;1.10;;
39482;SDS011;25682;48.438;1.482;2023-02-19T08:40:47;4.28;;;1.20;;
39482;SDS011;25682;48.438;1.482;2023-02-19T08:43:14;10.63;;;2.03;;
39482;SDS011;25682;48.438;1.482;2023-02-19T08:45:40;7.85;;;1.52;;
39482;SDS011;25682;48.438;1.482;2023-02-19T08:48:07;7.10;;;1.45;;
39482;SDS011;25682;48.438;1.482;2023-02-19T08:50:33;7.88;;;1.60;;
39482;SDS011;25682;48.438;1.482;2023-02-19T08:53:00;7.90;;;1.77;;
39482;SDS011;25682;48.438;1.482;2023-02-19T08:55:26;3.92;;;1.40;;
39482;SDS011;25682;48.438;1.482;2023-02-19T08:57:52;3.88;;;1.80;;
39482;SDS011;25682;48.438;1.482;2023-02-19T09:00:18;3.28;;;1.25;;
39482;SDS011;25682;48.438;1.482;2023-02-19T09:02:45;8.45;;;1.58;;
39482;SDS011;25682;48.438;1.482;2023-02-19T09:05:11;3.95;;;1.30;;
39482;SDS011;25682;48.438;1.482;2023-02-19T09:07:37;7.95;;;1.42;;
39482;SDS011;25682;48.438;1.482;2023-02-19T09:10:03;11.15;;;1.58;;
39482;SDS011;25682;48.438;1.482;2023-02-19T09:12:30;9.63;;;2.05;;
39482;SDS011;25682;48.438;1.482;2023-02-19T09:14:57;9.77;;;1.67;;
39482;SDS011;25682;48.438;1.482;2023-02-19T09:17:23;9.63;;;1.50;;
39482;SDS011;25682;48.438;1.482;2023-02-19T09:19:49;12.32;;;2.25;;
39482;SDS011;25682;48.438;1.482;2023-02-19T09:22:15;20.23;;;2.67;;
39482;SDS011;25682;48.438;1.482;2023-02-19T09:24:41;11.68;;;2.17;;
39482;SDS011;25682;48.438;1.482;2023-02-19T09:27:07;12.25;;;2.13;;
39482;SDS011;25682;48.438;1.482;2023-02-19T09:29:34;8.40;;;1.80;;
39482;SDS011;25682;48.438;1.482;2023-02-19T09:32:01;15.88;;;2.50;;
39482;SDS011;25682;48.438;1.482;2023-02-19T09:34:27;9.43;;;1.60;;
39482;SDS011;25682;48.438;1.482;2023-02-19T09:36:53;11.32;;;1.80;;
39482;SDS011;25682;48.438;1.482;2023-02-19T09:39:19;7.07;;;1.40;;
39482;SDS011;25682;48.438;1.482;2023-02-19T09:42:09;11.98;;;1.85;;
39482;SDS011;25682;48.438;1.482;2023-02-19T09:44:35;4.85;;;1.77;;
39482;SDS011;25682;48.438;1.482;2023-02-19T09:47:02;4.38;;;1.42;;
39482;SDS011;25682;48.438;1.482;2023-02-19T09:49:33;4.68;;;1.60;;
39482;SDS011;25682;48.438;1.482;2023-02-19T09:52:06;6.72;;;1.65;;
39482;SDS011;25682;48.438;1.482;2023-02-19T09:54:34;6.70;;;1.40;;
39482;SDS011;25682;48.438;1.482;2023-02-19T09:57:02;6.40;;;1.63;;
39482;SDS011;25682;48.438;1.482;2023-02-19T09:59:39;5.00;;;1.65;;
39482;SDS011;25682;48.438;1.482;2023-02-19T10:02:15;6.88;;;1.75;;
39482;SDS011;25682;48.438;1.482;2023-02-19T10:04:42;10.57;;;2.15;;
39482;SDS011;25682;48.438;1.482;2023-02-19T10:07:10;3.47;;;1.70;;
39482;SDS011;25682;48.438;1.482;2023-02-19T10:09:37;7.47;;;1.98;;
39482;SDS011;25682;48.438;1.482;2023-02-19T10:12:03;7.47;;;1.67;;
39482;SDS011;25682;48.438;1.482;2023-02-19T10:14:38;9.10;;;2.47;;
39482;SDS011;25682;48.438;1.482;2023-02-19T10:17:05;6.93;;;1.80;;
39482;SDS011;25682;48.438;1.482;2023-02-19T10:19:31;6.60;;;1.90;;
39482;SDS011;25682;48.438;1.482;2023-02-19T10:21:58;7.80;;;1.85;;
39482;SDS011;25682;48.438;1.482;2023-02-19T10:24:25;7.38;;;2.17;;
39482;SDS011;25682;48.438;1.482;2023-02-19T10:26:51;6.63;;;2.03;;
39482;SDS011;25682;48.438;1.482;2023-02-19T10:29:18;4.60;;;1.52;;
39482;SDS011;25682;48.438;1.482;2023-02-19T10:31:45;6.03;;;1.70;;
39482;SDS011;25682;48.438;1.482;2023-02-19T10:34:18;3.70;;;1.60;;
39482;SDS011;25682;48.438;1.482;2023-02-19T10:36:46;5.80;;;2.55;;
39482;SDS011;25682;48.438;1.482;2023-02-19T10:41:46;11.85;;;2.10;;
39482;SDS011;25682;48.438;1.482;2023-02-19T10:44:14;4.47;;;2.08;;
39482;SDS011;25682;48.438;1.482;2023-02-19T10:46:41;4.55;;;1.83;;
39482;SDS011;25682;48.438;1.482;2023-02-19T10:49:17;6.45;;;2.08;;
39482;SDS011;25682;48.438;1.482;2023-02-19T10:51:44;10.80;;;2.30;;
39482;SDS011;25682;48.438;1.482;2023-02-19T10:54:18;5.45;;;2.10;;
39482;SDS011;25682;48.438;1.482;2023-02-19T10:56:45;8.50;;;2.75;;
39482;SDS011;25682;48.438;1.482;2023-02-19T11:01:59;7.63;;;1.73;;
39482;SDS011;25682;48.438;1.482;2023-02-19T11:04:32;13.57;;;2.58;;
39482;SDS011;25682;48.438;1.482;2023-02-19T11:07:16;5.85;;;1.77;;
39482;SDS011;25682;48.438;1.482;2023-02-19T11:09:43;6.60;;;2.58;;
39482;SDS011;25682;48.438;1.482;2023-02-19T11:12:11;7.80;;;1.80;;
39482;SDS011;25682;48.438;1.482;2023-02-19T11:14:40;8.73;;;2.10;;
39482;SDS011;25682;48.438;1.482;2023-02-19T11:17:15;14.60;;;2.60;;
39482;SDS011;25682;48.438;1.482;2023-02-19T11:19:45;6.82;;;1.90;;
39482;SDS011;25682;48.438;1.482;2023-02-19T11:24:53;5.97;;;2.15;;
39482;SDS011;25682;48.438;1.482;2023-02-19T11:27:20;9.35;;;2.25;;
39482;SDS011;25682;48.438;1.482;2023-02-19T11:29:47;6.50;;;2.10;;
39482;SDS011;25682;48.438;1.482;2023-02-19T11:34:45;8.02;;;2.40;;
39482;SDS011;25682;48.438;1.482;2023-02-19T11:37:15;6.95;;;2.13;;
39482;SDS011;25682;48.438;1.482;2023-02-19T11:39:42;7.35;;;2.10;;
39482;SDS011;25682;48.438;1.482;2023-02-19T11:42:32;9.95;;;2.35;;
39482;SDS011;25682;48.438;1.482;2023-02-19T11:52:41;9.32;;;2.55;;
39482;SDS011;25682;48.438;1.482;2023-02-19T11:58:00;10.13;;;2.53;;
39482;SDS011;25682;48.438;1.482;2023-02-19T12:00:28;8.07;;;2.08;;
39482;SDS011;25682;48.438;1.482;2023-02-19T12:03:10;8.45;;;2.78;;
39482;SDS011;25682;48.438;1.482;2023-02-19T12:08:34;6.05;;;2.13;;
39482;SDS011;25682;48.438;1.482;2023-02-19T12:11:08;7.53;;;1.70;;
39482;SDS011;25682;48.438;1.482;2023-02-19T12:23:48;8.27;;;1.73;;
39482;SDS011;25682;48.438;1.482;2023-02-19T12:26:23;14.90;;;2.47;;
39482;SDS011;25682;48.438;1.482;2023-02-19T12:28:56;11.93;;;2.35;;
39482;SDS011;25682;48.438;1.482;2023-02-19T12:34:18;8.95;;;2.28;;
39482;SDS011;25682;48.438;1.482;2023-02-19T12:44:41;5.38;;;1.77;;
39482;SDS011;25682;48.438;1.482;2023-02-19T12:47:17;6.40;;;2.33;;
39482;SDS011;25682;48.438;1.482;2023-02-19T12:49:48;5.07;;;2.03;;
39482;SDS011;25682;48.438;1.482;2023-02-19T12:52:17;4.63;;;1.60;;
39482;SDS011;25682;48.438;1.482;2023-02-19T12:54:45;7.88;;;2.05;;
39482;SDS011;25682;48.438;1.482;2023-02-19T12:57:17;8.30;;;1.80;;
39482;SDS011;25682;48.438;1.482;2023-02-19T12:59:47;5.90;;;1.75;;
39482;SDS011;25682;48.438;1.482;2023-02-19T13:07:24;4.47;;;1.63;;
39482;SDS011;25682;48.438;1.482;2023-02-19T13:09:52;7.57;;;1.88;;
39482;SDS011;25682;48.438;1.482;2023-02-19T13:12:23;5.45;;;1.73;;
39482;SDS011;25682;48.438;1.482;2023-02-19T13:14:53;5.78;;;2.05;;
39482;SDS011;25682;48.438;1.482;2023-02-19T13:19:51;5.97;;;1.70;;
39482;SDS011;25682;48.438;1.482;2023-02-19T13:22:21;5.00;;;1.75;;
39482;SDS011;25682;48.438;1.482;2023-02-19T13:25:07;5.00;;;1.45;;
39482;SDS011;25682;48.438;1.482;2023-02-19T13:37:43;5.93;;;2.00;;
39482;SDS011;25682;48.438;1.482;2023-02-19T13:40:21;5.85;;;1.75;;
39482;SDS011;25682;48.438;1.482;2023-02-19T13:42:50;5.38;;;1.88;;
39482;SDS011;25682;48.438;1.482;2023-02-19T13:45:20;6.57;;;1.85;;
39482;SDS011;25682;48.438;1.482;2023-02-19T13:50:23;6.88;;;1.98;;
39482;SDS011;25682;48.438;1.482;2023-02-19T13:52:50;4.63;;;1.60;;
39482;SDS011;25682;48.438;1.482;2023-02-19T14:00:48;4.55;;;1.67;;
39482;SDS011;25682;48.438;1.482;2023-02-19T14:03:27;5.90;;;1.88;;
39482;SDS011;25682;48.438;1.482;2023-02-19T14:05:57;4.38;;;1.40;;
39482;SDS011;25682;48.438;1.482;2023-02-19T14:11:08;6.10;;;1.90;;
39482;SDS011;25682;48.438;1.482;2023-02-19T14:18:54;5.82;;;2.45;;
39482;SDS011;25682;48.438;1.482;2023-02-19T14:21:39;4.32;;;1.75;;
39482;SDS011;25682;48.438;1.482;2023-02-19T14:24:11;8.75;;;1.70;;
39482;SDS011;25682;48.438;1.482;2023-02-19T14:26:38;9.43;;;1.80;;
39482;SDS011;25682;48.438;1.482;2023-02-19T14:29:05;11.57;;;2.65;;
39482;SDS011;25682;48.438;1.482;2023-02-19T14:31:33;17.17;;;2.28;;
39482;SDS011;25682;48.438;1.482;2023-02-19T14:34:04;11.70;;;1.88;;
39482;SDS011;25682;48.438;1.482;2023-02-19T14:36:32;9.40;;;2.30;;
39482;SDS011;25682;48.438;1.482;2023-02-19T14:39:02;13.57;;;2.13;;
39482;SDS011;25682;48.438;1.482;2023-02-19T14:41:30;7.28;;;1.80;;
39482;SDS011;25682;48.438;1.482;2023-02-19T14:43:57;18.10;;;2.75;;
39482;SDS011;25682;48.438;1.482;2023-02-19T14:46:36;8.48;;;2.33;;
39482;SDS011;25682;48.438;1.482;2023-02-19T14:49:12;8.15;;;1.65;;
39482;SDS011;25682;48.438;1.482;2023-02-19T14:51:40;6.32;;;1.63;;
39482;SDS011;25682;48.438;1.482;2023-02-19T14:54:13;7.00;;;1.60;;
39482;SDS011;25682;48.438;1.482;2023-02-19T14:56:41;7.03;;;1.80;;
39482;SDS011;25682;48.438;1.482;2023-02-19T15:01:38;6.70;;;1.77;;
39482;SDS011;25682;48.438;1.482;2023-02-19T15:04:04;6.05;;;2.55;;
39482;SDS011;25682;48.438;1.482;2023-02-19T15:06:32;7.32;;;2.10;;
39482;SDS011;25682;48.438;1.482;2023-02-19T15:09:03;8.52;;;1.83;;
39482;SDS011;25682;48.438;1.482;2023-02-19T15:11:30;7.00;;;1.80;;
39482;SDS011;25682;48.438;1.482;2023-02-19T15:14:04;10.70;;;1.90;;
39482;SDS011;25682;48.438;1.482;2023-02-19T15:16:31;7.13;;;1.60;;
39482;SDS011;25682;48.438;1.482;2023-02-19T15:18:59;5.50;;;1.65;;
39482;SDS011;25682;48.438;1.482;2023-02-19T15:21:27;4.88;;;1.30;;
39482;SDS011;25682;48.438;1.482;2023-02-19T15:23:54;4.72;;;1.83;;
39482;SDS011;25682;48.438;1.482;2023-02-19T15:26:22;7.13;;;1.90;;
39482;SDS011;25682;48.438;1.482;2023-02-19T15:28:56;4.50;;;1.40;;
39482;SDS011;25682;48.438;1.482;2023-02-19T15:31:23;5.90;;;2.22;;
39482;SDS011;25682;48.438;1.482;2023-02-19T15:33:52;7.53;;;1.42;;
39482;SDS011;25682;48.438;1.482;2023-02-19T15:36:22;6.75;;;1.52;;
39482;SDS011;25682;48.438;1.482;2023-02-19T15:38:53;8.38;;;1.88;;
39482;SDS011;25682;48.438;1.482;2023-02-19T15:41:22;7.25;;;1.60;;
39482;SDS011;25682;48.438;1.482;2023-02-19T15:44:03;6.97;;;1.70;;
39482;SDS011;25682;48.438;1.482;2023-02-19T15:46:31;5.35;;;1.50;;
39482;SDS011;25682;48.438;1.482;2023-02-19T15:49:08;4.05;;;1.40;;
39482;SDS011;25682;48.438;1.482;2023-02-19T15:51:39;5.47;;;1.33;;
39482;SDS011;25682;48.438;1.482;2023-02-19T15:54:23;9.80;;;1.83;;
39482;SDS011;25682;48.438;1.482;2023-02-19T15:56:51;14.82;;;3.20;;
39482;SDS011;25682;48.438;1.482;2023-02-19T15:59:20;9.93;;;1.58;;
39482;SDS011;25682;48.438;1.482;2023-02-19T16:01:48;10.38;;;1.75;;
39482;SDS011;25682;48.438;1.482;2023-02-19T16:04:15;7.43;;;1.70;;
39482;SDS011;25682;48.438;1.482;2023-02-19T16:06:49;13.05;;;2.25;;
39482;SDS011;25682;48.438;1.482;2023-02-19T16:09:18;16.35;;;1.65;;
39482;SDS011;25682;48.438;1.482;2023-02-19T16:11:47;5.05;;;1.40;;
39482;SDS011;25682;48.438;1.482;2023-02-19T16:14:27;6.70;;;1.75;;
39482;SDS011;25682;48.438;1.482;2023-02-19T16:16:54;7.00;;;1.90;;
39482;SDS011;25682;48.438;1.482;2023-02-19T16:19:25;10.15;;;1.58;;
39482;SDS011;25682;48.438;1.482;2023-02-19T16:21:52;10.52;;;2.33;;
39482;SDS011;25682;48.438;1.482;2023-02-19T16:24:24;5.72;;;1.80;;
39482;SDS011;25682;48.438;1.482;2023-02-19T16:26:50;5.97;;;1.55;;
39482;SDS011;25682;48.438;1.482;2023-02-19T16:29:18;3.47;;;1.48;;
39482;SDS011;25682;48.438;1.482;2023-02-19T16:31:51;5.05;;;2.25;;
39482;SDS011;25682;48.438;1.482;2023-02-19T16:34:25;4.32;;;1.67;;
39482;SDS011;25682;48.438;1.482;2023-02-19T16:36:54;6.05;;;1.58;;
39482;SDS011;25682;48.438;1.482;2023-02-19T16:39:20;5.03;;;1.70;;
39482;SDS011;25682;48.438;1.482;2023-02-19T16:46:52;5.13;;;1.52;;
39482;SDS011;25682;48.438;1.482;2023-02-19T16:49:18;3.78;;;1.30;;